createdAt,value
2022-08-10T00:00:51.594Z,18.00
2022-08-10T00:05:54.937Z,17.90
2022-08-10T00:10:58.084Z,17.90
2022-08-10T00:16:00.260Z,17.80
2022-08-10T00:21:02.417Z,17.70
2022-08-10T00:26:05.752Z,17.60
2022-08-10T00:31:07.564Z,17.60
2022-08-10T00:36:09.538Z,17.50
2022-08-10T00:41:11.336Z,17.40
2022-08-10T00:46:13.117Z,17.40
2022-08-10T00:51:15.081Z,17.50
2022-08-10T00:56:35.088Z,17.30
2022-08-10T01:02:08.652Z,17.20
2022-08-10T01:07:19.873Z,17.20
2022-08-10T01:12:46.676Z,17.20
2022-08-10T01:17:54.206Z,17.20
2022-08-10T01:23:20.827Z,17.10
2022-08-10T01:28:34.386Z,17.10
2022-08-10T01:33:58.464Z,17.00
2022-08-10T01:39:03.900Z,16.80
2022-08-10T01:44:29.238Z,16.80
2022-08-10T01:49:32.168Z,16.70
2022-08-10T01:54:34.596Z,16.70
2022-08-10T01:59:39.898Z,16.50
2022-08-10T02:04:46.072Z,16.30
2022-08-10T02:09:52.902Z,16.20
2022-08-10T02:14:58.733Z,16.20
2022-08-10T02:20:05.410Z,16.10
2022-08-10T02:25:08.961Z,16.10
2022-08-10T02:30:12.219Z,16.10
2022-08-10T02:35:22.510Z,16.00
2022-08-10T02:45:01.646Z,15.90
2022-08-10T02:45:53.241Z,15.90
2022-08-10T02:50:58.695Z,15.80
2022-08-10T02:56:10.728Z,15.80
2022-08-10T03:01:17.632Z,15.70
2022-08-10T03:06:25.260Z,15.70
2022-08-10T03:12:35.281Z,15.60
2022-08-10T03:16:55.463Z,15.70
2022-08-10T03:21:58.639Z,15.70
2022-08-10T03:27:01.398Z,15.80
2022-08-10T03:32:05.637Z,15.70
2022-08-10T03:37:07.642Z,15.80
2022-08-10T03:42:12.883Z,15.80
2022-08-10T03:47:19.984Z,15.80
2022-08-10T03:52:21.917Z,15.70
2022-08-10T03:57:24.543Z,15.70
2022-08-10T04:02:47.140Z,15.80
2022-08-10T04:07:49.038Z,15.80
2022-08-10T04:12:50.898Z,15.90
2022-08-10T04:17:57.031Z,15.90
2022-08-10T04:23:21.993Z,15.90
2022-08-10T04:28:24.054Z,15.80
2022-08-10T04:33:28.991Z,15.80
2022-08-10T04:38:33.697Z,15.90
2022-08-10T04:43:36.467Z,15.90
2022-08-10T04:48:42.056Z,15.90
2022-08-10T04:54:03.889Z,15.90
2022-08-10T04:59:10.641Z,15.90
2022-08-10T05:04:36.542Z,15.90
2022-08-10T05:09:34.143Z,15.90
2022-08-10T05:14:56.181Z,15.90
2022-08-10T05:20:03.305Z,15.80
2022-08-10T05:25:13.815Z,16.00
2022-08-10T05:30:21.943Z,16.20
2022-08-10T05:35:24.053Z,16.20
2022-08-10T05:40:27.555Z,16.30
2022-08-10T05:45:29.430Z,16.40
2022-08-10T05:50:31.527Z,16.60
2022-08-10T05:55:33.580Z,16.70
2022-08-10T06:00:41.898Z,16.80
2022-08-10T06:05:48.169Z,17.00
2022-08-10T06:12:27.686Z,17.10
2022-08-10T06:16:17.025Z,17.20
2022-08-10T06:21:20.053Z,17.30
2022-08-10T06:26:21.954Z,17.40
2022-08-10T06:31:26.111Z,17.80
2022-08-10T06:36:34.085Z,18.00
2022-08-10T06:41:57.870Z,18.10
2022-08-10T06:47:07.627Z,18.30
2022-08-10T06:52:18.236Z,18.50
2022-08-10T06:57:24.746Z,18.80
2022-08-10T07:02:34.238Z,19.00
2022-08-10T07:07:39.149Z,19.20
2022-08-10T07:12:41.152Z,19.50
2022-08-10T07:17:45.888Z,19.60
2022-08-10T07:23:26.961Z,19.70
2022-08-10T07:28:13.477Z,19.80
2022-08-10T07:33:18.242Z,20.10
2022-08-10T07:38:25.377Z,20.40
2022-08-10T07:43:32.037Z,20.50
2022-08-10T07:48:40.646Z,20.60
2022-08-10T07:53:47.703Z,20.60
2022-08-10T07:58:53.017Z,20.90
2022-08-10T08:04:05.930Z,21.00
2022-08-10T08:09:12.854Z,21.20
2022-08-10T08:14:15.885Z,21.20
2022-08-10T08:19:28.540Z,21.30
2022-08-10T08:24:42.363Z,21.60
2022-08-10T08:29:47.021Z,21.60
2022-08-10T08:34:54.413Z,21.70
2022-08-10T08:39:56.775Z,21.90
2022-08-10T08:45:20.218Z,22.20
2022-08-10T08:51:13.134Z,22.20
2022-08-10T08:56:49.562Z,22.40
2022-08-10T09:02:18.099Z,22.60
2022-08-10T09:08:00.040Z,22.70
2022-08-10T09:13:05.262Z,22.90
2022-08-10T09:18:23.938Z,23.10
2022-08-10T09:24:01.902Z,23.10
2022-08-10T09:29:13.476Z,23.10
2022-08-10T09:36:26.997Z,23.20
2022-08-10T09:40:12.267Z,23.30
2022-08-10T09:45:38.890Z,23.40
2022-08-10T09:51:42.137Z,23.60
2022-08-10T09:56:49.405Z,23.80
2022-08-10T10:02:03.625Z,23.90
2022-08-10T10:07:08.662Z,24.20
2022-08-10T10:12:26.885Z,24.20
2022-08-10T10:17:49.829Z,24.10
2022-08-10T10:23:35.098Z,24.10
2022-08-10T10:29:25.164Z,24.20
2022-08-10T10:34:38.091Z,24.50
2022-08-10T10:39:43.982Z,24.60
2022-08-10T10:45:18.166Z,24.80
2022-08-10T10:50:27.673Z,24.80
2022-08-10T10:56:13.268Z,25.00
2022-08-10T11:01:23.032Z,25.10
2022-08-10T11:07:01.082Z,25.20
2022-08-10T11:12:26.180Z,25.30
2022-08-10T11:17:54.978Z,25.20
2022-08-10T11:23:34.421Z,25.10
2022-08-10T11:28:43.272Z,25.10
2022-08-10T11:34:46.607Z,25.10
2022-08-10T11:39:48.576Z,25.00
2022-08-10T11:45:00.223Z,25.10
2022-08-10T11:50:42.535Z,25.40
2022-08-10T11:55:53.243Z,25.50
2022-08-10T12:00:57.246Z,25.60
2022-08-10T12:06:00.867Z,25.80
2022-08-10T12:11:03.027Z,25.80
2022-08-10T12:16:11.902Z,25.90
2022-08-10T12:21:40.725Z,26.00
2022-08-10T12:26:57.157Z,26.10
2022-08-10T12:32:24.870Z,26.50
2022-08-10T12:38:00.054Z,26.80
2022-08-10T12:44:07.129Z,27.20
2022-08-10T12:49:02.671Z,27.50
2022-08-10T12:54:31.811Z,27.90
2022-08-10T12:59:43.368Z,28.40
2022-08-10T13:04:49.160Z,28.40
2022-08-10T13:09:55.691Z,28.90
2022-08-10T13:15:45.962Z,29.10
2022-08-10T13:20:35.336Z,29.30
2022-08-10T13:25:40.490Z,30.10
2022-08-10T13:30:45.539Z,30.20
2022-08-10T13:35:58.078Z,30.30
2022-08-10T13:41:04.086Z,30.50
2022-08-10T13:46:07.286Z,31.20
2022-08-10T13:51:56.933Z,32.50
2022-08-10T13:56:52.078Z,32.80
2022-08-10T14:01:54.413Z,32.40
2022-08-10T14:07:00.240Z,33.20
2022-08-10T14:12:02.316Z,34.10
2022-08-10T14:17:06.952Z,34.60
2022-08-10T14:22:08.855Z,35.00
2022-08-10T14:27:16.365Z,35.00
2022-08-10T14:32:23.469Z,35.40
2022-08-10T14:37:37.780Z,34.10
2022-08-10T14:42:48.928Z,35.20
2022-08-10T14:47:59.376Z,34.70
2022-08-10T14:53:10.197Z,35.90
2022-08-10T14:58:20.552Z,35.20
2022-08-10T15:04:02.251Z,36.40
2022-08-10T15:08:49.967Z,37.10
2022-08-10T15:14:14.917Z,33.80
2022-08-10T15:20:00.941Z,34.40
2022-08-10T15:25:00.287Z,34.50
2022-08-10T15:30:03.803Z,33.10
2022-08-10T15:35:26.113Z,32.80
2022-08-10T15:40:35.965Z,31.90
2022-08-10T15:45:56.587Z,32.60
2022-08-10T15:51:05.748Z,32.70
2022-08-10T15:56:17.496Z,32.50
2022-08-10T16:02:13.726Z,31.70
2022-08-10T16:07:15.431Z,30.90
2022-08-10T16:12:34.961Z,30.90
2022-08-10T16:17:54.312Z,30.10
2022-08-10T16:23:02.119Z,29.80
2022-08-10T16:28:07.388Z,29.40
2022-08-10T16:33:11.882Z,29.10
2022-08-10T16:38:17.070Z,29.10
2022-08-10T16:43:23.548Z,28.90
2022-08-10T16:48:49.475Z,28.60
2022-08-10T16:53:53.729Z,28.30
2022-08-10T16:58:57.419Z,28.00
2022-08-10T17:04:09.910Z,28.00
2022-08-10T17:09:20.573Z,27.90
2022-08-10T17:14:25.058Z,27.70
2022-08-10T17:19:30.131Z,27.80
2022-08-10T17:24:37.381Z,27.60
2022-08-10T17:29:57.140Z,27.40
2022-08-10T17:35:09.139Z,27.30
2022-08-10T17:40:15.520Z,27.20
2022-08-10T17:45:48.719Z,27.00
2022-08-10T17:50:49.760Z,26.90
2022-08-10T17:55:57.695Z,26.80
2022-08-10T18:01:41.569Z,26.60
2022-08-10T18:06:25.068Z,26.50
2022-08-10T18:11:32.143Z,26.40
2022-08-10T18:16:35.418Z,26.30
2022-08-10T18:21:47.104Z,26.10
2022-08-10T18:26:52.373Z,26.00
2022-08-10T18:31:58.987Z,25.90
2022-08-10T18:37:04.410Z,25.80
2022-08-10T18:42:21.326Z,25.70
2022-08-10T18:47:40.979Z,25.60
2022-08-10T18:53:04.632Z,25.40
2022-08-10T18:58:18.200Z,25.20
2022-08-10T19:03:56.547Z,25.00
2022-08-10T19:09:08.629Z,24.90
2022-08-10T19:14:37.442Z,24.80
2022-08-10T19:20:08.670Z,24.60
2022-08-10T19:26:17.106Z,24.50
2022-08-10T19:30:54.355Z,24.40
2022-08-10T19:36:06.214Z,24.30
2022-08-10T19:41:15.007Z,24.30
2022-08-10T19:46:43.677Z,24.20
2022-08-10T19:52:10.921Z,24.10
2022-08-10T19:57:28.973Z,24.10
2022-08-10T20:02:41.961Z,23.90
2022-08-10T20:07:53.932Z,23.90
2022-08-10T20:13:20.573Z,23.70
2022-08-10T20:18:26.737Z,23.50
2022-08-10T20:23:36.686Z,23.30
2022-08-10T20:28:42.948Z,23.10
2022-08-10T20:34:07.087Z,23.00
2022-08-10T20:39:33.732Z,22.90
2022-08-10T20:45:08.458Z,22.80
2022-08-10T20:50:34.781Z,22.70
2022-08-10T20:55:51.951Z,22.60
2022-08-10T21:01:25.640Z,22.50
2022-08-10T21:07:06.027Z,22.40
2022-08-10T21:12:30.414Z,22.30
2022-08-10T21:18:13.174Z,22.30
2022-08-10T21:23:16.790Z,22.20
2022-08-10T21:28:55.463Z,22.00
2022-08-10T21:34:05.878Z,21.90
2022-08-10T21:39:42.572Z,21.80
2022-08-10T21:45:58.350Z,21.90
2022-08-10T21:51:24.375Z,21.60
2022-08-10T21:57:02.828Z,21.60
2022-08-10T22:02:28.052Z,21.50
2022-08-10T22:07:55.037Z,21.40
2022-08-10T22:13:24.010Z,21.30
2022-08-10T22:19:01.899Z,21.30
2022-08-10T22:24:42.573Z,21.20
2022-08-10T22:30:12.049Z,21.10
2022-08-10T22:35:51.307Z,21.00
2022-08-10T22:41:19.155Z,20.90
2022-08-10T22:46:46.215Z,20.80
2022-08-10T22:52:08.188Z,20.80
2022-08-10T22:57:34.416Z,20.80
2022-08-10T23:02:38.660Z,20.70
2022-08-10T23:07:51.365Z,20.60
2022-08-10T23:13:14.389Z,20.60
2022-08-10T23:18:57.729Z,20.60
2022-08-10T23:24:00.157Z,20.50
2022-08-10T23:29:12.157Z,20.40
2022-08-10T23:34:19.569Z,20.30
2022-08-10T23:39:29.873Z,20.30
2022-08-10T23:44:40.795Z,20.20
2022-08-10T23:49:44.273Z,20.10
2022-08-10T23:54:49.852Z,20.00
2022-08-10T23:59:57.985Z,20.00
